New Windsor, Illinois
Current Conditions -  °F | °C
As of 4:52 PM on Tuesday 25 Nov 2014 (Local Time) from KMLI Reporting Station
Clear Clear  
Wind Chill: 24°   Ceiling: Unl
Heat Index: 24°   Visibility: 10mi
Dew Point: 16°   Wind: 3mph
Humidity: 71%   Direction: 200°SSW
Pressure: 30.14"   Gusts: NA
Location:  41.2°N, 90.47°W
Report Text: KMLI 252252Z 20003KT 10SM CLR M04/M09 A3014 RMK AO2 SLP216 T10441089
Loading
Personal Weather Stations






























Interactive Weather Map New forecast layout! Learn more

10-Day Weather Forecast

Advertisements
Track Severe Weather on mobile